sensor_id;sensor_type;location;lat;lon;timestamp;temperature;humidity
54264;DHT22;40178;53.042;6.406;2023-04-25T00:01:04;6.20;99.90
54264;DHT22;40178;53.042;6.406;2023-04-25T00:03:34;6.50;99.90
54264;DHT22;40178;53.042;6.406;2023-04-25T00:06:01;6.20;99.90
54264;DHT22;40178;53.042;6.406;2023-04-25T00:08:30;6.10;99.90
54264;DHT22;40178;53.042;6.406;2023-04-25T00:10:57;6.10;99.90
54264;DHT22;40178;53.042;6.406;2023-04-25T00:13:22;6.20;99.90
54264;DHT22;40178;53.042;6.406;2023-04-25T00:15:48;6.10;99.90
54264;DHT22;40178;53.042;6.406;2023-04-25T00:18:14;6.10;99.90
54264;DHT22;40178;53.042;6.406;2023-04-25T00:20:40;5.90;99.90
54264;DHT22;40178;53.042;6.406;2023-04-25T00:23:16;5.80;99.90
54264;DHT22;40178;53.042;6.406;2023-04-25T00:25:48;5.80;99.90
54264;DHT22;40178;53.042;6.406;2023-04-25T00:28:14;5.70;99.90
54264;DHT22;40178;53.042;6.406;2023-04-25T00:30:41;5.70;99.90
54264;DHT22;40178;53.042;6.406;2023-04-25T00:33:07;5.70;99.90
54264;DHT22;40178;53.042;6.406;2023-04-25T00:35:33;5.70;99.90
54264;DHT22;40178;53.042;6.406;2023-04-25T00:37:59;5.70;99.90
54264;DHT22;40178;53.042;6.406;2023-04-25T00:40:25;5.70;99.90
54264;DHT22;40178;53.042;6.406;2023-04-25T00:42:54;5.70;99.90
54264;DHT22;40178;53.042;6.406;2023-04-25T00:45:20;5.60;99.90
54264;DHT22;40178;53.042;6.406;2023-04-25T00:47:46;5.60;99.90
54264;DHT22;40178;53.042;6.406;2023-04-25T00:50:13;5.60;99.90
54264;DHT22;40178;53.042;6.406;2023-04-25T00:52:41;5.60;99.90
54264;DHT22;40178;53.042;6.406;2023-04-25T00:55:08;5.50;99.90
54264;DHT22;40178;53.042;6.406;2023-04-25T00:57:35;5.50;99.90
54264;DHT22;40178;53.042;6.406;2023-04-25T01:00:01;5.40;99.90
54264;DHT22;40178;53.042;6.406;2023-04-25T01:02:27;5.40;99.90
54264;DHT22;40178;53.042;6.406;2023-04-25T01:04:53;5.30;99.90
54264;DHT22;40178;53.042;6.406;2023-04-25T01:07:18;5.30;99.90
54264;DHT22;40178;53.042;6.406;2023-04-25T01:09:46;5.30;99.90
54264;DHT22;40178;53.042;6.406;2023-04-25T01:12:11;5.20;99.90
54264;DHT22;40178;53.042;6.406;2023-04-25T01:14:37;5.20;99.90
54264;DHT22;40178;53.042;6.406;2023-04-25T01:17:03;5.30;99.90
54264;DHT22;40178;53.042;6.406;2023-04-25T01:19:29;5.30;99.90
54264;DHT22;40178;53.042;6.406;2023-04-25T01:21:56;5.30;99.90
54264;DHT22;40178;53.042;6.406;2023-04-25T01:24:21;5.20;99.90
54264;DHT22;40178;53.042;6.406;2023-04-25T01:26:47;5.30;99.90
54264;DHT22;40178;53.042;6.406;2023-04-25T01:29:17;5.20;99.90
54264;DHT22;40178;53.042;6.406;2023-04-25T01:31:43;5.30;99.90
54264;DHT22;40178;53.042;6.406;2023-04-25T01:34:09;5.30;99.90
54264;DHT22;40178;53.042;6.406;2023-04-25T01:36:35;6.40;99.90
54264;DHT22;40178;53.042;6.406;2023-04-25T01:39:01;5.30;99.90
54264;DHT22;40178;53.042;6.406;2023-04-25T01:41:27;5.30;99.90
54264;DHT22;40178;53.042;6.406;2023-04-25T01:43:53;5.30;99.90
54264;DHT22;40178;53.042;6.406;2023-04-25T01:46:19;5.30;99.90
54264;DHT22;40178;53.042;6.406;2023-04-25T01:48:44;5.30;99.90
54264;DHT22;40178;53.042;6.406;2023-04-25T01:51:10;5.30;99.90
54264;DHT22;40178;53.042;6.406;2023-04-25T01:53:37;5.30;99.90
54264;DHT22;40178;53.042;6.406;2023-04-25T01:56:03;5.30;99.90
54264;DHT22;40178;53.042;6.406;2023-04-25T01:58:29;5.30;99.90
54264;DHT22;40178;53.042;6.406;2023-04-25T02:00:54;5.30;99.90
54264;DHT22;40178;53.042;6.406;2023-04-25T02:03:20;5.30;99.90
54264;DHT22;40178;53.042;6.406;2023-04-25T02:05:46;5.30;99.90
54264;DHT22;40178;53.042;6.406;2023-04-25T02:08:11;5.30;99.90
54264;DHT22;40178;53.042;6.406;2023-04-25T02:10:37;5.30;99.90
54264;DHT22;40178;53.042;6.406;2023-04-25T02:13:03;5.30;99.90
54264;DHT22;40178;53.042;6.406;2023-04-25T02:15:29;5.20;99.90
54264;DHT22;40178;53.042;6.406;2023-04-25T02:17:55;5.30;99.90
54264;DHT22;40178;53.042;6.406;2023-04-25T02:20:22;5.30;99.90
54264;DHT22;40178;53.042;6.406;2023-04-25T02:22:48;5.30;99.90
54264;DHT22;40178;53.042;6.406;2023-04-25T02:25:14;5.30;99.90
54264;DHT22;40178;53.042;6.406;2023-04-25T02:27:42;5.30;99.90
54264;DHT22;40178;53.042;6.406;2023-04-25T02:30:08;5.30;99.90
54264;DHT22;40178;53.042;6.406;2023-04-25T02:32:34;5.30;99.90
54264;DHT22;40178;53.042;6.406;2023-04-25T02:35:00;5.30;99.90
54264;DHT22;40178;53.042;6.406;2023-04-25T02:37:30;5.20;99.90
54264;DHT22;40178;53.042;6.406;2023-04-25T02:39:55;5.20;99.90
54264;DHT22;40178;53.042;6.406;2023-04-25T02:42:21;5.30;99.90
54264;DHT22;40178;53.042;6.406;2023-04-25T02:44:47;5.30;99.90
54264;DHT22;40178;53.042;6.406;2023-04-25T02:47:12;5.30;99.90
54264;DHT22;40178;53.042;6.406;2023-04-25T02:49:38;5.20;99.90
54264;DHT22;40178;53.042;6.406;2023-04-25T02:52:03;5.20;99.90
54264;DHT22;40178;53.042;6.406;2023-04-25T02:54:30;5.20;99.90
54264;DHT22;40178;53.042;6.406;2023-04-25T02:56:55;5.20;99.90
54264;DHT22;40178;53.042;6.406;2023-04-25T02:59:21;5.20;99.90
54264;DHT22;40178;53.042;6.406;2023-04-25T03:01:47;5.20;99.90
54264;DHT22;40178;53.042;6.406;2023-04-25T03:04:12;5.20;99.90
54264;DHT22;40178;53.042;6.406;2023-04-25T03:06:38;5.20;99.90
54264;DHT22;40178;53.042;6.406;2023-04-25T03:09:04;5.10;99.90
54264;DHT22;40178;53.042;6.406;2023-04-25T03:11:29;5.00;99.90
54264;DHT22;40178;53.042;6.406;2023-04-25T03:13:55;4.90;99.90
54264;DHT22;40178;53.042;6.406;2023-04-25T03:16:21;4.90;99.90
54264;DHT22;40178;53.042;6.406;2023-04-25T03:18:47;4.80;99.90
54264;DHT22;40178;53.042;6.406;2023-04-25T03:21:13;4.70;99.90
54264;DHT22;40178;53.042;6.406;2023-04-25T03:23:38;4.70;99.90
54264;DHT22;40178;53.042;6.406;2023-04-25T03:26:04;4.60;99.90
54264;DHT22;40178;53.042;6.406;2023-04-25T03:28:29;4.60;99.90
54264;DHT22;40178;53.042;6.406;2023-04-25T03:30:55;4.60;99.90
54264;DHT22;40178;53.042;6.406;2023-04-25T03:33:21;4.60;99.90
54264;DHT22;40178;53.042;6.406;2023-04-25T03:35:47;4.60;99.90
54264;DHT22;40178;53.042;6.406;2023-04-25T03:38:13;4.60;99.90
54264;DHT22;40178;53.042;6.406;2023-04-25T03:40:38;4.50;99.90
54264;DHT22;40178;53.042;6.406;2023-04-25T03:43:04;4.50;99.90
54264;DHT22;40178;53.042;6.406;2023-04-25T03:45:30;4.50;99.90
54264;DHT22;40178;53.042;6.406;2023-04-25T03:47:56;4.50;99.90
54264;DHT22;40178;53.042;6.406;2023-04-25T03:50:22;4.50;99.90
54264;DHT22;40178;53.042;6.406;2023-04-25T03:52:47;4.50;99.90
54264;DHT22;40178;53.042;6.406;2023-04-25T03:55:13;4.40;99.90
54264;DHT22;40178;53.042;6.406;2023-04-25T03:57:39;4.40;99.90
54264;DHT22;40178;53.042;6.406;2023-04-25T04:00:05;4.30;99.90
54264;DHT22;40178;53.042;6.406;2023-04-25T04:02:31;4.30;99.90
54264;DHT22;40178;53.042;6.406;2023-04-25T04:04:58;4.20;99.90
54264;DHT22;40178;53.042;6.406;2023-04-25T04:07:23;4.20;99.90
54264;DHT22;40178;53.042;6.406;2023-04-25T04:09:49;4.10;99.90
54264;DHT22;40178;53.042;6.406;2023-04-25T04:12:15;4.10;99.90
54264;DHT22;40178;53.042;6.406;2023-04-25T04:14:40;4.20;99.90
54264;DHT22;40178;53.042;6.406;2023-04-25T04:17:06;4.20;99.90
54264;DHT22;40178;53.042;6.406;2023-04-25T04:19:32;4.20;99.90
54264;DHT22;40178;53.042;6.406;2023-04-25T04:21:57;4.20;99.90
54264;DHT22;40178;53.042;6.406;2023-04-25T04:24:23;4.30;99.90
54264;DHT22;40178;53.042;6.406;2023-04-25T04:26:49;4.30;99.90
54264;DHT22;40178;53.042;6.406;2023-04-25T04:29:16;4.30;99.90
54264;DHT22;40178;53.042;6.406;2023-04-25T04:31:48;4.30;99.90
54264;DHT22;40178;53.042;6.406;2023-04-25T04:34:13;4.30;99.90
54264;DHT22;40178;53.042;6.406;2023-04-25T04:36:39;4.20;99.90
54264;DHT22;40178;53.042;6.406;2023-04-25T04:39:05;4.20;99.90
54264;DHT22;40178;53.042;6.406;2023-04-25T04:41:31;4.20;99.90
54264;DHT22;40178;53.042;6.406;2023-04-25T04:43:57;4.10;99.90
54264;DHT22;40178;53.042;6.406;2023-04-25T04:46:23;4.10;99.90
54264;DHT22;40178;53.042;6.406;2023-04-25T04:48:50;4.00;99.90
54264;DHT22;40178;53.042;6.406;2023-04-25T04:51:15;3.90;99.90
54264;DHT22;40178;53.042;6.406;2023-04-25T04:53:41;4.80;99.90
54264;DHT22;40178;53.042;6.406;2023-04-25T04:56:06;3.90;99.90
54264;DHT22;40178;53.042;6.406;2023-04-25T04:58:32;3.80;99.90
54264;DHT22;40178;53.042;6.406;2023-04-25T05:00:58;3.80;99.90
54264;DHT22;40178;53.042;6.406;2023-04-25T05:03:24;3.80;99.90
54264;DHT22;40178;53.042;6.406;2023-04-25T05:05:49;3.90;99.90
54264;DHT22;40178;53.042;6.406;2023-04-25T05:08:15;3.80;99.90
54264;DHT22;40178;53.042;6.406;2023-04-25T05:10:40;3.90;99.90
54264;DHT22;40178;53.042;6.406;2023-04-25T05:13:07;4.00;99.90
54264;DHT22;40178;53.042;6.406;2023-04-25T05:15:32;4.10;99.90
54264;DHT22;40178;53.042;6.406;2023-04-25T05:17:58;4.30;99.90
54264;DHT22;40178;53.042;6.406;2023-04-25T05:20:24;4.30;99.90
54264;DHT22;40178;53.042;6.406;2023-04-25T05:22:49;4.40;99.90
54264;DHT22;40178;53.042;6.406;2023-04-25T05:25:15;4.50;99.90
54264;DHT22;40178;53.042;6.406;2023-04-25T05:27:40;4.60;99.90
54264;DHT22;40178;53.042;6.406;2023-04-25T05:30:07;4.60;99.90
54264;DHT22;40178;53.042;6.406;2023-04-25T05:32:33;4.70;99.90
54264;DHT22;40178;53.042;6.406;2023-04-25T05:34:59;4.70;99.90
54264;DHT22;40178;53.042;6.406;2023-04-25T05:37:25;4.80;99.90
54264;DHT22;40178;53.042;6.406;2023-04-25T05:39:50;4.80;99.90
54264;DHT22;40178;53.042;6.406;2023-04-25T05:42:16;4.90;99.90
54264;DHT22;40178;53.042;6.406;2023-04-25T05:44:42;4.90;99.90
54264;DHT22;40178;53.042;6.406;2023-04-25T05:47:07;5.10;99.90
54264;DHT22;40178;53.042;6.406;2023-04-25T05:49:34;5.20;99.90
54264;DHT22;40178;53.042;6.406;2023-04-25T05:52:00;5.30;99.90
54264;DHT22;40178;53.042;6.406;2023-04-25T05:54:25;5.40;99.90
54264;DHT22;40178;53.042;6.406;2023-04-25T05:56:51;5.50;99.90
54264;DHT22;40178;53.042;6.406;2023-04-25T05:59:16;5.60;99.90
54264;DHT22;40178;53.042;6.406;2023-04-25T06:01:42;5.60;99.90
54264;DHT22;40178;53.042;6.406;2023-04-25T06:04:07;5.70;99.90
54264;DHT22;40178;53.042;6.406;2023-04-25T06:06:33;5.70;99.90
54264;DHT22;40178;53.042;6.406;2023-04-25T06:08:59;5.80;99.90
54264;DHT22;40178;53.042;6.406;2023-04-25T06:11:24;6.10;99.90
54264;DHT22;40178;53.042;6.406;2023-04-25T06:13:50;6.00;99.90
54264;DHT22;40178;53.042;6.406;2023-04-25T06:16:16;6.10;99.90
54264;DHT22;40178;53.042;6.406;2023-04-25T06:18:41;6.40;99.90
54264;DHT22;40178;53.042;6.406;2023-04-25T06:21:07;6.60;99.90
54264;DHT22;40178;53.042;6.406;2023-04-25T06:23:32;6.60;99.90
54264;DHT22;40178;53.042;6.406;2023-04-25T06:25:58;6.50;99.90
54264;DHT22;40178;53.042;6.406;2023-04-25T06:28:24;6.20;99.90
54264;DHT22;40178;53.042;6.406;2023-04-25T06:30:50;5.80;99.90
54264;DHT22;40178;53.042;6.406;2023-04-25T06:33:16;5.70;99.90
54264;DHT22;40178;53.042;6.406;2023-04-25T06:35:41;6.30;99.90
54264;DHT22;40178;53.042;6.406;2023-04-25T06:38:07;5.50;99.90
54264;DHT22;40178;53.042;6.406;2023-04-25T06:40:32;5.60;99.90
54264;DHT22;40178;53.042;6.406;2023-04-25T06:42:58;5.70;99.90
54264;DHT22;40178;53.042;6.406;2023-04-25T06:45:23;5.80;99.90
54264;DHT22;40178;53.042;6.406;2023-04-25T06:47:49;6.00;99.90
54264;DHT22;40178;53.042;6.406;2023-04-25T06:50:15;6.20;99.90
54264;DHT22;40178;53.042;6.406;2023-04-25T06:52:40;6.30;99.90
54264;DHT22;40178;53.042;6.406;2023-04-25T06:55:06;6.50;99.90
54264;DHT22;40178;53.042;6.406;2023-04-25T06:57:32;6.40;99.90
54264;DHT22;40178;53.042;6.406;2023-04-25T06:59:57;6.40;99.90
54264;DHT22;40178;53.042;6.406;2023-04-25T07:02:23;6.40;99.90
54264;DHT22;40178;53.042;6.406;2023-04-25T07:04:49;6.40;99.90
54264;DHT22;40178;53.042;6.406;2023-04-25T07:07:14;6.40;99.90
54264;DHT22;40178;53.042;6.406;2023-04-25T07:09:40;6.30;99.90
54264;DHT22;40178;53.042;6.406;2023-04-25T07:12:06;6.30;99.90
54264;DHT22;40178;53.042;6.406;2023-04-25T07:14:31;6.30;99.90
54264;DHT22;40178;53.042;6.406;2023-04-25T07:16:57;6.30;99.90
54264;DHT22;40178;53.042;6.406;2023-04-25T07:19:23;6.40;97.20
54264;DHT22;40178;53.042;6.406;2023-04-25T07:21:52;6.40;99.90
54264;DHT22;40178;53.042;6.406;2023-04-25T07:24:17;6.60;99.90
54264;DHT22;40178;53.042;6.406;2023-04-25T07:26:43;6.70;99.90
54264;DHT22;40178;53.042;6.406;2023-04-25T07:29:09;7.40;99.90
54264;DHT22;40178;53.042;6.406;2023-04-25T07:31:35;7.00;99.90
54264;DHT22;40178;53.042;6.406;2023-04-25T07:34:01;7.30;99.90
54264;DHT22;40178;53.042;6.406;2023-04-25T07:36:26;7.60;97.30
54264;DHT22;40178;53.042;6.406;2023-04-25T07:38:52;7.60;87.80
54264;DHT22;40178;53.042;6.406;2023-04-25T07:41:18;7.50;97.50
54264;DHT22;40178;53.042;6.406;2023-04-25T07:43:43;7.30;99.90
54264;DHT22;40178;53.042;6.406;2023-04-25T07:46:09;7.10;99.90
54264;DHT22;40178;53.042;6.406;2023-04-25T07:48:35;7.00;99.90
54264;DHT22;40178;53.042;6.406;2023-04-25T07:51:00;6.90;99.90
54264;DHT22;40178;53.042;6.406;2023-04-25T07:53:26;6.90;99.90
54264;DHT22;40178;53.042;6.406;2023-04-25T07:55:51;7.00;99.90
54264;DHT22;40178;53.042;6.406;2023-04-25T07:58:17;7.20;99.90
54264;DHT22;40178;53.042;6.406;2023-04-25T08:00:47;7.10;98.40
54264;DHT22;40178;53.042;6.406;2023-04-25T08:03:12;7.00;99.40
54264;DHT22;40178;53.042;6.406;2023-04-25T08:05:38;7.00;99.90
54264;DHT22;40178;53.042;6.406;2023-04-25T08:08:03;7.00;99.90
54264;DHT22;40178;53.042;6.406;2023-04-25T08:10:32;7.20;98.90
54264;DHT22;40178;53.042;6.406;2023-04-25T08:12:58;7.30;94.80
54264;DHT22;40178;53.042;6.406;2023-04-25T08:15:23;7.40;69.50
54264;DHT22;40178;53.042;6.406;2023-04-25T08:17:49;7.50;77.60
54264;DHT22;40178;53.042;6.406;2023-04-25T08:20:15;6.50;89.40
54264;DHT22;40178;53.042;6.406;2023-04-25T08:22:40;7.40;75.30
54264;DHT22;40178;53.042;6.406;2023-04-25T08:25:06;7.60;86.30
54264;DHT22;40178;53.042;6.406;2023-04-25T08:27:32;7.80;96.60
54264;DHT22;40178;53.042;6.406;2023-04-25T08:29:58;7.90;94.90
54264;DHT22;40178;53.042;6.406;2023-04-25T08:32:24;8.10;78.40
54264;DHT22;40178;53.042;6.406;2023-04-25T08:34:49;8.40;86.60
54264;DHT22;40178;53.042;6.406;2023-04-25T08:37:16;8.30;30.00
54264;DHT22;40178;53.042;6.406;2023-04-25T08:39:44;8.30;40.70
54264;DHT22;40178;53.042;6.406;2023-04-25T08:42:12;8.40;85.40
54264;DHT22;40178;53.042;6.406;2023-04-25T08:44:37;8.20;89.10
54264;DHT22;40178;53.042;6.406;2023-04-25T08:47:04;7.90;84.90
54264;DHT22;40178;53.042;6.406;2023-04-25T08:49:34;7.70;91.80
54264;DHT22;40178;53.042;6.406;2023-04-25T08:52:01;7.20;79.30
54264;DHT22;40178;53.042;6.406;2023-04-25T08:54:28;6.40;98.90
54264;DHT22;40178;53.042;6.406;2023-04-25T08:56:56;5.80;99.90
54264;DHT22;40178;53.042;6.406;2023-04-25T08:59:27;5.60;99.90
54264;DHT22;40178;53.042;6.406;2023-04-25T09:01:53;5.50;99.90
54264;DHT22;40178;53.042;6.406;2023-04-25T09:04:19;5.60;99.90
54264;DHT22;40178;53.042;6.406;2023-04-25T09:06:46;5.70;99.90
54264;DHT22;40178;53.042;6.406;2023-04-25T09:09:12;5.80;99.90
54264;DHT22;40178;53.042;6.406;2023-04-25T09:11:37;6.00;99.90
54264;DHT22;40178;53.042;6.406;2023-04-25T09:14:11;6.20;99.90
54264;DHT22;40178;53.042;6.406;2023-04-25T09:17:01;6.20;99.90
54264;DHT22;40178;53.042;6.406;2023-04-25T09:19:30;6.40;99.90
54264;DHT22;40178;53.042;6.406;2023-04-25T09:22:15;6.60;99.90
54264;DHT22;40178;53.042;6.406;2023-04-25T09:24:44;6.70;99.90
54264;DHT22;40178;53.042;6.406;2023-04-25T09:30:36;7.20;99.90
54264;DHT22;40178;53.042;6.406;2023-04-25T09:36:26;8.00;99.90
54264;DHT22;40178;53.042;6.406;2023-04-25T09:39:29;8.40;99.90
54264;DHT22;40178;53.042;6.406;2023-04-25T09:42:32;8.20;92.60
54264;DHT22;40178;53.042;6.406;2023-04-25T09:48:57;7.20;99.90
54264;DHT22;40178;53.042;6.406;2023-04-25T09:58:08;6.60;99.90
54264;DHT22;40178;53.042;6.406;2023-04-25T10:04:16;7.30;99.90
54264;DHT22;40178;53.042;6.406;2023-04-25T10:17:11;8.20;73.70
54264;DHT22;40178;53.042;6.406;2023-04-25T10:26:21;8.70;73.50
54264;DHT22;40178;53.042;6.406;2023-04-25T10:29:24;8.90;53.10
54264;DHT22;40178;53.042;6.406;2023-04-25T10:49:02;8.00;72.80
54264;DHT22;40178;53.042;6.406;2023-04-25T10:52:12;8.20;82.50
54264;DHT22;40178;53.042;6.406;2023-04-25T11:02:11;9.00;16.40
54264;DHT22;40178;53.042;6.406;2023-04-25T11:04:56;8.70;1.00
54264;DHT22;40178;53.042;6.406;2023-04-25T11:07:59;9.00;63.10
54264;DHT22;40178;53.042;6.406;2023-04-25T11:14:07;7.80;93.80
54264;DHT22;40178;53.042;6.406;2023-04-25T11:16:55;7.60;98.50
54264;DHT22;40178;53.042;6.406;2023-04-25T11:19:29;7.80;95.50
54264;DHT22;40178;53.042;6.406;2023-04-25T11:21:56;7.90;99.90
54264;DHT22;40178;53.042;6.406;2023-04-25T11:24:32;8.00;99.60
54264;DHT22;40178;53.042;6.406;2023-04-25T11:26:59;8.30;85.60
54264;DHT22;40178;53.042;6.406;2023-04-25T11:29:28;8.80;99.90
54264;DHT22;40178;53.042;6.406;2023-04-25T11:31:54;9.20;65.80
54264;DHT22;40178;53.042;6.406;2023-04-25T11:34:23;9.40;95.70
54264;DHT22;40178;53.042;6.406;2023-04-25T11:36:50;9.60;88.80
54264;DHT22;40178;53.042;6.406;2023-04-25T11:39:16;9.70;91.90
54264;DHT22;40178;53.042;6.406;2023-04-25T11:41:42;9.80;97.70
54264;DHT22;40178;53.042;6.406;2023-04-25T11:44:07;9.70;27.20
54264;DHT22;40178;53.042;6.406;2023-04-25T11:46:36;9.40;56.50
54264;DHT22;40178;53.042;6.406;2023-04-25T11:49:02;8.90;9.80
54264;DHT22;40178;53.042;6.406;2023-04-25T11:51:29;8.50;38.10
54264;DHT22;40178;53.042;6.406;2023-04-25T11:53:56;8.30;20.20
54264;DHT22;40178;53.042;6.406;2023-04-25T11:56:22;8.30;82.90
54264;DHT22;40178;53.042;6.406;2023-04-25T11:59:14;8.60;73.50
54264;DHT22;40178;53.042;6.406;2023-04-25T12:01:48;8.70;1.00
54264;DHT22;40178;53.042;6.406;2023-04-25T12:04:22;8.80;1.40
54264;DHT22;40178;53.042;6.406;2023-04-25T12:06:50;9.00;14.10
54264;DHT22;40178;53.042;6.406;2023-04-25T12:09:38;8.80;13.70
54264;DHT22;40178;53.042;6.406;2023-04-25T12:12:03;8.50;46.00
54264;DHT22;40178;53.042;6.406;2023-04-25T12:14:34;8.30;41.10
54264;DHT22;40178;53.042;6.406;2023-04-25T12:17:01;8.10;1.00
54264;DHT22;40178;53.042;6.406;2023-04-25T12:19:36;7.90;48.20
54264;DHT22;40178;53.042;6.406;2023-04-25T12:22:03;8.10;36.50
54264;DHT22;40178;53.042;6.406;2023-04-25T12:24:45;8.10;23.00
54264;DHT22;40178;53.042;6.406;2023-04-25T12:27:10;8.20;29.80
54264;DHT22;40178;53.042;6.406;2023-04-25T12:29:53;8.40;1.00
54264;DHT22;40178;53.042;6.406;2023-04-25T12:32:19;8.70;1.00
54264;DHT22;40178;53.042;6.406;2023-04-25T12:34:44;9.00;3.90
54264;DHT22;40178;53.042;6.406;2023-04-25T12:37:10;9.30;22.60
54264;DHT22;40178;53.042;6.406;2023-04-25T12:39:36;9.40;1.00
54264;DHT22;40178;53.042;6.406;2023-04-25T12:42:02;9.50;6.90
54264;DHT22;40178;53.042;6.406;2023-04-25T12:44:28;9.40;1.00
54264;DHT22;40178;53.042;6.406;2023-04-25T12:46:54;9.40;1.00
54264;DHT22;40178;53.042;6.406;2023-04-25T12:49:20;9.40;7.50
54264;DHT22;40178;53.042;6.406;2023-04-25T12:51:46;9.40;1.00
54264;DHT22;40178;53.042;6.406;2023-04-25T12:54:12;9.60;14.70
54264;DHT22;40178;53.042;6.406;2023-04-25T12:56:38;9.80;48.40
54264;DHT22;40178;53.042;6.406;2023-04-25T12:59:03;9.90;1.00
54264;DHT22;40178;53.042;6.406;2023-04-25T13:01:29;9.80;1.00
54264;DHT22;40178;53.042;6.406;2023-04-25T13:03:55;10.10;13.50
54264;DHT22;40178;53.042;6.406;2023-04-25T13:06:22;10.10;99.90
54264;DHT22;40178;53.042;6.406;2023-04-25T13:08:48;10.00;1.00
54264;DHT22;40178;53.042;6.406;2023-04-25T13:11:13;9.60;27.60
54264;DHT22;40178;53.042;6.406;2023-04-25T13:13:42;8.80;64.30
54264;DHT22;40178;53.042;6.406;2023-04-25T13:16:08;8.00;58.20
54264;DHT22;40178;53.042;6.406;2023-04-25T13:18:34;7.60;82.40
54264;DHT22;40178;53.042;6.406;2023-04-25T13:21:00;7.70;95.80
54264;DHT22;40178;53.042;6.406;2023-04-25T13:23:28;8.00;99.90
54264;DHT22;40178;53.042;6.406;2023-04-25T13:25:54;8.50;99.50
54264;DHT22;40178;53.042;6.406;2023-04-25T13:28:21;8.80;88.80
54264;DHT22;40178;53.042;6.406;2023-04-25T13:30:47;8.80;71.30
54264;DHT22;40178;53.042;6.406;2023-04-25T13:33:13;8.80;3.50
54264;DHT22;40178;53.042;6.406;2023-04-25T13:35:40;8.80;87.80
54264;DHT22;40178;53.042;6.406;2023-04-25T13:38:06;8.80;70.20
54264;DHT22;40178;53.042;6.406;2023-04-25T13:40:31;8.80;72.00
54264;DHT22;40178;53.042;6.406;2023-04-25T13:42:57;8.80;1.00
54264;DHT22;40178;53.042;6.406;2023-04-25T13:45:23;8.90;42.50
54264;DHT22;40178;53.042;6.406;2023-04-25T13:47:49;9.20;53.50
54264;DHT22;40178;53.042;6.406;2023-04-25T13:50:15;8.80;1.00
54264;DHT22;40178;53.042;6.406;2023-04-25T13:52:41;8.70;15.50
54264;DHT22;40178;53.042;6.406;2023-04-25T13:55:08;8.60;27.60
54264;DHT22;40178;53.042;6.406;2023-04-25T13:57:34;8.30;31.60
54264;DHT22;40178;53.042;6.406;2023-04-25T14:00:00;8.00;44.50
54264;DHT22;40178;53.042;6.406;2023-04-25T14:02:31;7.90;1.00
54264;DHT22;40178;53.042;6.406;2023-04-25T14:04:57;8.20;45.10
54264;DHT22;40178;53.042;6.406;2023-04-25T14:07:22;8.50;51.30
54264;DHT22;40178;53.042;6.406;2023-04-25T14:09:48;8.50;1.00
54264;DHT22;40178;53.042;6.406;2023-04-25T14:12:13;8.70;7.10
54264;DHT22;40178;53.042;6.406;2023-04-25T14:14:39;8.80;1.00
54264;DHT22;40178;53.042;6.406;2023-04-25T14:17:05;9.40;1.00
54264;DHT22;40178;53.042;6.406;2023-04-25T14:19:31;9.70;40.30
54264;DHT22;40178;53.042;6.406;2023-04-25T14:21:57;9.90;1.00
54264;DHT22;40178;53.042;6.406;2023-04-25T14:24:22;10.10;1.00
54264;DHT22;40178;53.042;6.406;2023-04-25T14:26:48;10.20;99.90
54264;DHT22;40178;53.042;6.406;2023-04-25T14:29:14;10.30;99.90
54264;DHT22;40178;53.042;6.406;2023-04-25T14:31:40;10.20;1.00
54264;DHT22;40178;53.042;6.406;2023-04-25T14:34:06;10.20;12.70
54264;DHT22;40178;53.042;6.406;2023-04-25T14:36:32;10.20;33.00
54264;DHT22;40178;53.042;6.406;2023-04-25T14:38:59;10.00;1.00
54264;DHT22;40178;53.042;6.406;2023-04-25T14:41:25;10.00;1.00
54264;DHT22;40178;53.042;6.406;2023-04-25T14:43:51;9.70;99.90
54264;DHT22;40178;53.042;6.406;2023-04-25T14:46:18;9.90;99.90
54264;DHT22;40178;53.042;6.406;2023-04-25T14:48:45;10.20;1.00
54264;DHT22;40178;53.042;6.406;2023-04-25T14:51:11;10.60;1.00
54264;DHT22;40178;53.042;6.406;2023-04-25T14:53:36;11.00;99.90
54264;DHT22;40178;53.042;6.406;2023-04-25T14:56:02;11.40;99.90
54264;DHT22;40178;53.042;6.406;2023-04-25T14:58:28;11.50;1.00
54264;DHT22;40178;53.042;6.406;2023-04-25T15:00:53;11.60;70.00
54264;DHT22;40178;53.042;6.406;2023-04-25T15:03:19;11.40;99.90
54264;DHT22;40178;53.042;6.406;2023-04-25T15:05:45;11.30;66.60
54264;DHT22;40178;53.042;6.406;2023-04-25T15:08:10;11.50;99.90
54264;DHT22;40178;53.042;6.406;2023-04-25T15:10:36;11.70;1.00
54264;DHT22;40178;53.042;6.406;2023-04-25T15:13:03;11.60;99.90
54264;DHT22;40178;53.042;6.406;2023-04-25T15:15:29;11.00;1.00
54264;DHT22;40178;53.042;6.406;2023-04-25T15:17:55;10.50;99.90
54264;DHT22;40178;53.042;6.406;2023-04-25T15:20:22;9.90;90.20
54264;DHT22;40178;53.042;6.406;2023-04-25T15:22:47;9.60;1.00
54264;DHT22;40178;53.042;6.406;2023-04-25T15:25:14;9.40;1.00
54264;DHT22;40178;53.042;6.406;2023-04-25T15:27:41;9.30;99.90
54264;DHT22;40178;53.042;6.406;2023-04-25T15:30:13;9.60;1.00
54264;DHT22;40178;53.042;6.406;2023-04-25T15:32:41;10.30;1.00
54264;DHT22;40178;53.042;6.406;2023-04-25T15:35:07;11.00;1.00
54264;DHT22;40178;53.042;6.406;2023-04-25T15:37:34;11.60;1.00
54264;DHT22;40178;53.042;6.406;2023-04-25T15:40:08;12.20;1.00
54264;DHT22;40178;53.042;6.406;2023-04-25T15:42:38;11.70;1.00
54264;DHT22;40178;53.042;6.406;2023-04-25T15:45:06;11.40;99.90
54264;DHT22;40178;53.042;6.406;2023-04-25T15:47:34;11.20;99.90
54264;DHT22;40178;53.042;6.406;2023-04-25T15:50:00;10.80;99.90
54264;DHT22;40178;53.042;6.406;2023-04-25T15:52:26;10.40;99.90
54264;DHT22;40178;53.042;6.406;2023-04-25T15:54:52;10.00;1.00
54264;DHT22;40178;53.042;6.406;2023-04-25T15:57:19;9.70;1.00
54264;DHT22;40178;53.042;6.406;2023-04-25T15:59:47;9.50;1.00
54264;DHT22;40178;53.042;6.406;2023-04-25T16:02:13;9.50;1.00
54264;DHT22;40178;53.042;6.406;2023-04-25T16:04:38;9.70;1.00
54264;DHT22;40178;53.042;6.406;2023-04-25T16:07:04;9.80;1.00
54264;DHT22;40178;53.042;6.406;2023-04-25T16:09:33;10.00;99.90
54264;DHT22;40178;53.042;6.406;2023-04-25T16:11:59;10.10;99.90
54264;DHT22;40178;53.042;6.406;2023-04-25T16:14:24;9.90;99.90
54264;DHT22;40178;53.042;6.406;2023-04-25T16:16:50;9.80;12.20
54264;DHT22;40178;53.042;6.406;2023-04-25T16:19:16;9.80;99.00
54264;DHT22;40178;53.042;6.406;2023-04-25T16:21:42;9.70;1.00
54264;DHT22;40178;53.042;6.406;2023-04-25T16:24:08;9.70;99.90
54264;DHT22;40178;53.042;6.406;2023-04-25T16:26:33;9.60;18.70
54264;DHT22;40178;53.042;6.406;2023-04-25T16:29:02;9.50;99.90
54264;DHT22;40178;53.042;6.406;2023-04-25T16:31:28;9.30;99.90
54264;DHT22;40178;53.042;6.406;2023-04-25T16:33:54;9.30;99.90
54264;DHT22;40178;53.042;6.406;2023-04-25T16:36:20;9.20;99.90
54264;DHT22;40178;53.042;6.406;2023-04-25T16:38:45;9.00;99.90
54264;DHT22;40178;53.042;6.406;2023-04-25T16:41:11;8.80;99.90
54264;DHT22;40178;53.042;6.406;2023-04-25T16:43:38;8.70;1.00
54264;DHT22;40178;53.042;6.406;2023-04-25T16:46:07;8.50;1.00
54264;DHT22;40178;53.042;6.406;2023-04-25T16:48:32;8.10;1.00
54264;DHT22;40178;53.042;6.406;2023-04-25T16:50:59;7.80;11.50
54264;DHT22;40178;53.042;6.406;2023-04-25T16:53:25;7.60;1.00